• Join FlightAware (Why Join?)
  • Login
  • US Flag 
10:34PM EDT


 

Airport Tracker/Info


-or-


 

Live Flight TrackerFlight Track Log ✈ RXA3657 ✈ 17-May-2013 ✈ YMIA / MQL - YMML / MEL

Flight Track Log - Related Links

Times and Time Zones

All times are in EDT time to prevent confusion due to time zone crossing. See the RXA3657 flight status page for this flight to view local times or setup timezone preferences in your user account.

Time Position Orientation Groundspeed Altitude Reporting Facility
EDT Latitude Longitude Course Direction KTS MPH feet Rate Location/Type
08:27PM -34.2759 142.1145 140° Southeast 19,000  Level Aus ATC (Calculated)
08:28PM -34.3162 142.1535 140° Southeast 19,000 -360 Level Aus ATC (Calculated)
08:30PM -34.3934 142.2284 141° Southeast  Level FlightAware Approximate
08:30PM -34.3967 142.2315 140° Southeast 19,000  Level Aus ATC (Calculated)
08:32PM -34.4739 142.3066 141° Southeast  Level FlightAware Approximate
08:33PM -34.5311 142.3622 141° Southeast  Level FlightAware Approximate
08:34PM -34.5882 142.4180 141° Southeast  Level FlightAware Approximate
08:35PM -34.6453 142.4738 141° Southeast  Level FlightAware Approximate
08:36PM -34.7024 142.5297 141° Southeast  Level FlightAware Approximate
08:37PM -34.7595 142.5857 141° Southeast  Level FlightAware Approximate
08:37PM -34.6471 142.4908 141° Southeast 203 234 15,800  Level Aus ATC (RADAR)
08:37PM -34.6717 142.5136 143° Southeast 193 222 16,400 840 Climbing Aus ATC (RADAR)
08:38PM -34.7080 142.5457 144° Southeast 251 289 17,000 780 Climbing Aus ATC (RADAR)
08:39PM -34.7240 142.5665 133° Southeast 212 244 17,400 840 Climbing Aus ATC (RADAR)
08:40PM -34.7732 142.6116 143° Southeast 196 226 18,400 840 Climbing Aus ATC (RADAR)
08:40PM -34.7948 142.6319 142° Southeast 197 227 18,800 780 Climbing Aus ATC (RADAR)
08:41PM -34.8197 142.6562 141° Southeast 198 228 19,300 240 Climbing Aus ATC (RADAR)
08:42PM -34.8584 142.6934 142° Southeast 217 250 19,200 -120 Descending Aus ATC (RADAR)
08:42PM -34.8878 142.7227 141° Southeast 231 266 19,200  Level Aus ATC (RADAR)
08:43PM -34.9281 142.7615 142° Southeast 247 284 19,200  Level Aus ATC (RADAR)
08:44PM -34.9510 142.7843 141° Southeast 253 291 19,200  Level Aus ATC (RADAR)
08:45PM -35.0176 142.8490 142° Southeast 265 305 19,200  Level Aus ATC (RADAR)
08:45PM -35.0414 142.8726 141° Southeast 264 304 19,200  Level Aus ATC (RADAR)
08:46PM -35.0707 142.9007 142° Southeast 268 308 19,200 -120 Level Aus ATC (RADAR)
08:46PM -35.1030 142.9326 141° Southeast 254 292 19,100 -240 Descending Aus ATC (RADAR)
08:46PM -35.1130 142.9410 140° Southeast 234 269 19,000  Descending FlightAware
08:47PM -35.1402 142.9710 140° Southeast 229 264 19,100  Climbing Aus ATC (RADAR)
08:47PM -35.1420 142.9710 140° Southeast 229 264 19,000  Descending FlightAware
08:48PM -35.1718 142.9997 140° Southeast 211 243 19,100  Climbing Aus ATC (RADAR)
08:48PM -35.1690 143.0000 140° Southeast 229 264 19,000  Descending FlightAware
08:48PM -35.2064 143.0337 140° Southeast 214 246 19,100  Climbing Aus ATC (RADAR)
08:48PM -35.1960 143.0290 140° Southeast 229 264 19,000 -120 Descending FlightAware
08:49PM -35.2300 143.0650 139° Southeast 229 264 19,000 60 Level FlightAware
08:50PM -35.2726 143.0985 139° Southeast 217 250 19,100 60 Climbing Aus ATC (RADAR)
08:50PM -35.2962 143.1219 141° Southeast 218 251 19,100  Level Aus ATC (RADAR)
08:51PM -35.3120 143.1362 143° Southeast 214 246 19,100 -180 Level Aus ATC (RADAR)
08:51PM -35.3180 143.1440 143° Southeast 211 243 19,000  Descending FlightAware
08:51PM -35.3399 143.1621 143° Southeast 214 246 19,100  Climbing Aus ATC (RADAR)
08:52PM -35.3520 143.1760 143° Southeast 210 242 19,000  Descending FlightAware
08:52PM -35.3785 143.2017 143° Southeast 215 247 19,100  Climbing Aus ATC (RADAR)
08:52PM -35.3860 143.2090 143° Southeast 210 242 19,000  Descending FlightAware
08:53PM -35.4067 143.2274 143° Southeast 217 250 19,100 60 Climbing Aus ATC (RADAR)
08:53PM -35.4455 143.2668 140° Southeast 218 251 19,100 -120 Level Aus ATC (RADAR)
08:53PM -35.4410 143.2650 140° Southeast 211 243 19,000  Descending FlightAware
08:54PM -35.4689 143.2910 140° Southeast 219 252 19,100  Climbing Aus ATC (RADAR)
08:54PM -35.4860 143.3080 140° Southeast 213 245 19,000  Descending FlightAware
08:55PM -35.5203 143.3417 140° Southeast 218 251 19,100  Climbing Aus ATC (RADAR)
08:55PM -35.5180 143.3400 140° Southeast 213 245 19,000  Descending FlightAware
08:55PM -35.5393 143.3616 140° Southeast 217 250 19,100  Climbing Aus ATC (RADAR)
08:56PM -35.5530 143.3740 140° Southeast 213 245 19,000 -120 Descending FlightAware
08:56PM -35.5860 143.4080 140° Southeast 213 245 19,000  Level FlightAware
08:57PM -35.6150 143.4360 142° Southeast 213 245 19,000 60 Level FlightAware
08:57PM -35.6311 143.4496 142° Southeast 218 251 19,100  Climbing Aus ATC (RADAR)
08:58PM -35.6540 143.4760 142° Southeast 212 244 19,000  Descending FlightAware
08:58PM -35.6810 143.5030 142° Southeast 218 251 19,100  Climbing Aus ATC (RADAR)
08:59PM -35.6860 143.5070 142° Southeast 213 245 19,000  Descending FlightAware
08:59PM -35.7088 143.5302 142° Southeast 218 251 19,100  Climbing Aus ATC (RADAR)
08:59PM -35.7210 143.5430 142° Southeast 214 246 19,000 -120 Descending FlightAware
09:00PM -35.7520 143.5740 141° Southeast 214 246 19,000 60 Level FlightAware
09:00PM -35.7760 143.5975 141° Southeast 221 254 19,100  Climbing Aus ATC (RADAR)
09:01PM -35.7850 143.6060 141° Southeast 214 246 19,000 -120 Descending FlightAware
09:01PM -35.8190 143.6410 140° Southeast 214 246 19,000 60 Level FlightAware
09:02PM -35.8624 143.6854 140° Southeast 219 252 19,100  Climbing Aus ATC (RADAR)
09:02PM -35.8630 143.6850 140° Southeast 216 249 19,000  Descending FlightAware
09:03PM -35.8904 143.7122 140° Southeast 218 251 19,100  Climbing Aus ATC (RADAR)
09:03PM -35.8990 143.7220 140° Southeast 215 247 19,000  Descending FlightAware
09:04PM -35.9262 143.7483 140° Southeast 220 253 19,100  Climbing Aus ATC (RADAR)
09:04PM -35.9310 143.7540 140° Southeast 214 246 19,000  Descending FlightAware
09:04PM -35.9460 143.7676 140° Southeast 218 251 19,100  Climbing Aus ATC (RADAR)
09:05PM -35.9740 143.7970 140° Southeast 212 244 19,000 -120 Descending FlightAware
09:05PM -36.0090 143.8330 140° Southeast 212 244 19,000 60 Level FlightAware
09:06PM -36.0362 143.8591 140° Southeast 218 251 19,100  Climbing Aus ATC (RADAR)
09:06PM -36.0400 143.8640 140° Southeast 214 246 19,000  Descending FlightAware
09:06PM -36.0636 143.8868 140° Southeast 217 250 19,100  Climbing Aus ATC (RADAR)
09:07PM -36.0680 143.8930 140° Southeast 213 245 19,000  Descending FlightAware
09:07PM -36.0909 143.9150 140° Southeast 217 250 19,100  Climbing Aus ATC (RADAR)
09:07PM -36.1080 143.9330 140° Southeast 214 246 19,000 -120 Descending FlightAware
09:08PM -36.1390 143.9640 141° Southeast 213 245 19,000 60 Level FlightAware
09:08PM -36.1575 143.9834 141° Southeast 220 253 19,100  Climbing Aus ATC (RADAR)
09:09PM -36.1740 144.0010 141° Southeast 212 244 19,000 -120 Descending FlightAware
09:10PM -36.2050 144.0320 141° Southeast 211 243 19,000 60 Level FlightAware
09:10PM -36.2356 144.0613 141° Southeast 215 247 19,100  Climbing Aus ATC (RADAR)
09:10PM -36.2370 144.0650 141° Southeast 212 244 19,000  Descending FlightAware
09:11PM -36.2592 144.0853 141° Southeast 217 250 19,100  Climbing Aus ATC (RADAR)
09:11PM -36.2720 144.1000 141° Southeast 213 245 19,000  Descending FlightAware
09:12PM -36.3059 144.1332 141° Southeast 217 250 19,100 60 Climbing Aus ATC (RADAR)
09:13PM -36.3486 144.1774 140° Southeast 218 251 19,100 -120 Level Aus ATC (RADAR)
09:13PM -36.3550 144.1850 140° Southeast 213 245 19,000  Descending FlightAware
09:13PM -36.3756 144.2056 140° Southeast 217 250 19,100 60 Climbing Aus ATC (RADAR)
09:14PM -36.4108 144.2417 140° Southeast 217 250 19,100 -120 Level Aus ATC (RADAR)
09:14PM -36.4100 144.2410 140° Southeast 211 243 19,000  Descending FlightAware
09:14PM -36.4303 144.2619 140° Southeast 218 251 19,100  Climbing Aus ATC (RADAR)
09:15PM -36.4760 144.3090 140° Southeast 212 244 19,000  Descending FlightAware
09:16PM -36.5082 144.3414 140° Southeast 217 250 19,100  Climbing Aus ATC (RADAR)
09:16PM -36.5080 144.3420 140° Southeast 212 244 19,000  Descending FlightAware
09:17PM -36.5354 144.3697 140° Southeast 217 250 19,100  Climbing Aus ATC (RADAR)
09:17PM -36.5420 144.3780 140° Southeast 212 244 19,000 -120 Descending FlightAware
09:17PM -36.5740 144.4100 141° Southeast 212 244 19,000 60 Level FlightAware
09:18PM -36.6053 144.4416 141° Southeast 215 247 19,100  Climbing Aus ATC (RADAR)
09:18PM -36.6040 144.4420 141° Southeast 216 249 19,000 -120 Descending FlightAware
09:19PM -36.6370 144.4760 140° Southeast 214 246 19,000 60 Level FlightAware
09:19PM -36.6624 144.5009 140° Southeast 213 245 19,100  Climbing Aus ATC (RADAR)
09:20PM -36.6700 144.5090 140° Southeast 214 246 19,000 -120 Descending FlightAware
09:20PM -36.7040 144.5450 140° Southeast 213 245 19,000 60 Level FlightAware
09:21PM -36.7192 144.5603 140° Southeast 212 244 19,100 -480 Climbing Aus ATC (RADAR)
09:21PM -36.7340 144.5760 140° Southeast 211 243 18,700 -1,020 Descending FlightAware
09:22PM -36.7648 144.6077 140° Southeast 210 242 18,100 -1,080 Descending Aus ATC (RADAR)
09:22PM -36.7650 144.6080 140° Southeast 208 239 18,000 -1,080 Descending FlightAware
09:22PM -36.7980 144.6430 140° Southeast 199 229 17,200 -1,080 Descending FlightAware
09:23PM -36.8180 144.6560 153° Southeast 199 229 16,800 -960 Descending FlightAware
09:23PM -36.8585 144.6628 153° Southeast 195 224 16,200 -960 Descending Aus ATC (RADAR)
09:24PM -36.8590 144.6640 153° Southeast 194 223 16,100 -900 Descending FlightAware
09:24PM -36.8940 144.6700 153° Southeast 193 222 15,600 -900 Descending Aus ATC (RADAR)
09:24PM -36.8940 144.6700 153° Southeast 185 213 15,500 -960 Descending FlightAware
09:25PM -36.9300 144.6790 169° South 195 224 14,900 -1,200 Descending FlightAware
09:26PM -36.9760 144.6890 170° South 230 265 13,800 -1,500 Descending FlightAware
09:26PM -37.0089 144.6963 170° South 243 280 13,200 -1,380 Descending Aus ATC (RADAR)
09:26PM -37.0220 144.6990 170° South 250 288 12,900 -1,380 Descending FlightAware
09:27PM -37.0760 144.7110 170° South 261 300 11,800 -1,500 Descending FlightAware
09:28PM -37.1230 144.7220 169° South 249 287 10,800 -1,560 Descending FlightAware
09:28PM -37.1664 144.7312 169° South 246 283 9,900 -1,500 Descending Aus ATC (RADAR)
09:28PM -37.1730 144.7330 169° South 246 283 9,700 -1,380 Descending FlightAware
09:29PM -37.2010 144.7390 170° South 244 281 9,100 -1,560 Descending FlightAware
09:29PM -37.2340 144.7460 170° South 228 262 8,300 -1,440 Descending FlightAware
09:30PM -37.2610 144.7510 172° South 228 262 7,800 -1,140 Descending FlightAware
09:30PM -37.2910 144.7580 169° South 214 246 7,300 -1,140 Descending FlightAware
09:31PM -37.3155 144.7625 169° South 221 254 6,900 -1,200 Descending Aus ATC (RADAR)
09:31PM -37.3210 144.7640 169° South 215 247 6,700 -1,020 Descending FlightAware
09:31PM -37.3450 144.7690 171° South 216 249 6,300 -1,140 Descending FlightAware
09:32PM -37.3739 144.7760 171° South 206 237 5,800 -1,200 Descending Aus ATC (RADAR)
09:32PM -37.3750 144.7770 171° South 198 228 5,700 -960 Descending FlightAware
09:32PM -37.3960 144.7820 169° South 186 214 5,300 -780 Descending FlightAware
09:32PM -37.4090 144.7850 170° South 184 212 5,200 -720 Descending FlightAware
09:33PM -37.4340 144.7920 167° South 183 211 4,800 -900 Descending FlightAware
09:33PM -37.4550 144.7970 169° South 178 205 4,400 -960 Descending FlightAware
09:34PM -37.4700 144.8000 171° South 178 205 4,100 -1,140 Descending FlightAware
09:34PM -37.5021 144.8060 171° South 172 198 3,400 -1,200 Descending Aus ATC (RADAR)
09:34PM -37.4980 144.8050 171° South 170 196 3,400 -780 Level FlightAware
09:35PM -37.5230 144.8110 169° South 158 182 3,000 -720 Descending FlightAware
09:35PM -37.5420 144.8150 171° South 140 161 2,700 -780 Descending FlightAware
09:36PM -37.5570 144.8180 171° South 130 150 2,300 -720 Descending FlightAware
09:36PM -37.5716 144.8196 171° South 129 148 2,200 -600 Descending Aus ATC (RADAR)
09:36PM -37.5750 144.8200 171° South 131 151 2,000 -840 Descending FlightAware
09:37PM -37.5910 144.8230 172° South 131 151 1,700 -720 Descending FlightAware
09:37PM -37.6048 144.8258 172° South 130 150 1,500 -720 Descending Aus ATC (RADAR)
09:38PM -37.6341 144.8312 172° South 128 147 900 -660 Descending Aus ATC (RADAR)
09:38PM -37.6541 144.8351 171° South 124 143 600 -540 Descending Aus ATC (RADAR)